Time;durP1;ratioP1;P1;durP2;ratioP2;P2;SDS_P1;SDS_P2;PMS_P1;PMS_P2;Temp;Humidity;BMP_temperature;BMP_pressure;BME280_temperature;BME280_humidity;BME280_pressure;Samples;Min_cycle;Max_cycle;Signal;HPM_P1;HPM_P2
2023/01/22 00:05:40;;;;;;;7.40;6.57;;;-0.70;99.90;;;;;;5009141;28;20231;-70
2023/01/22 00:08:05;;;;;;;9.57;6.40;;;-0.80;99.90;;;;;;5017479;28;20201;-70
2023/01/22 00:10:31;;;;;;;7.93;5.97;;;-0.90;99.90;;;;;;5024336;28;20181;-70
2023/01/22 00:12:56;;;;;;;7.37;6.67;;;-0.90;99.90;;;;;;5023057;28;20269;-70
2023/01/22 00:15:22;;;;;;;7.00;6.30;;;-1.00;99.90;;;;;;5015832;28;20183;-70
2023/01/22 00:17:48;;;;;;;7.30;6.30;;;-1.10;99.90;;;;;;5025366;28;20258;-69
2023/01/22 00:20:13;;;;;;;8.63;6.67;;;-1.10;99.90;;;;;;5025898;28;20197;-69
2023/01/22 00:22:39;;;;;;;8.90;6.70;;;-1.10;99.90;;;;;;5015656;28;20193;-69
2023/01/22 00:25:05;;;;;;;7.03;5.87;;;-1.20;99.90;;;;;;5022037;28;20208;-70
2023/01/22 00:27:30;;;;;;;6.60;5.90;;;-1.10;99.90;;;;;;5024606;28;20205;-70
2023/01/22 00:29:56;;;;;;;6.80;5.80;;;-1.10;99.90;;;;;;5018287;28;20287;-70
2023/01/22 00:32:21;;;;;;;7.43;5.87;;;-1.20;99.90;;;;;;5021552;28;20185;-70
2023/01/22 00:34:51;;;;;;;7.93;6.70;;;-1.20;99.90;;;;;;5031966;28;20709;-69
2023/01/22 00:37:16;;;;;;;6.97;6.27;;;-1.30;99.90;;;;;;5026351;28;20178;-70
2023/01/22 00:39:42;;;;;;;7.57;6.13;;;-1.30;99.90;;;;;;5011842;28;20671;-70
2023/01/22 00:42:07;;;;;;;8.17;6.80;;;-1.30;99.90;;;;;;5017568;28;20192;-70
2023/01/22 00:44:33;;;;;;;6.80;6.17;;;-1.30;99.90;;;;;;5018228;28;20209;-70
2023/01/22 00:46:58;;;;;;;7.20;5.97;;;-1.40;99.90;;;;;;5018938;28;20656;-71
2023/01/22 00:49:24;;;;;;;7.53;6.73;;;-1.40;99.90;;;;;;5017109;28;20646;-71
2023/01/22 00:51:49;;;;;;;8.00;7.20;;;-1.50;99.90;;;;;;5016741;28;20180;-71
2023/01/22 00:54:15;;;;;;;7.07;6.37;;;-1.50;99.90;;;;;;5020097;28;20251;-71
2023/01/22 00:56:40;;;;;;;7.87;6.50;;;-1.60;99.90;;;;;;5017942;28;20216;-71
2023/01/22 00:59:09;;;;;;;8.77;7.60;;;-1.60;99.90;;;;;;5018815;28;20181;-71
2023/01/22 01:01:38;;;;;;;8.00;6.43;;;-1.70;99.90;;;;;;5022782;28;20667;-70
2023/01/22 01:04:04;;;;;;;7.73;6.50;;;-1.70;99.90;;;;;;5017919;28;20257;-70
2023/01/22 01:06:29;;;;;;;7.73;6.93;;;-1.70;99.90;;;;;;5017977;28;20271;-71
2023/01/22 01:08:56;;;;;;;8.07;6.80;;;-1.70;99.90;;;;;;5017599;28;20296;-72
2023/01/22 01:11:22;;;;;;;7.63;6.67;;;-1.80;99.90;;;;;;5020214;28;20215;-71
2023/01/22 01:13:49;;;;;;;7.97;6.40;;;-1.80;99.90;;;;;;5016572;28;20254;-70
2023/01/22 01:16:16;;;;;;;6.93;6.23;;;-1.90;99.90;;;;;;5018712;28;20332;-70
2023/01/22 01:18:42;;;;;;;7.00;6.30;;;-1.90;99.90;;;;;;5014308;28;20189;-70
2023/01/22 01:21:09;;;;;;;9.43;6.50;;;-1.90;99.90;;;;;;5017662;28;20188;-71
2023/01/22 01:23:35;;;;;;;7.30;6.10;;;-1.90;99.90;;;;;;5020427;28;20201;-71
2023/01/22 01:26:07;;;;;;;8.07;7.07;;;-2.00;99.90;;;;;;5020539;28;20676;-70
2023/01/22 01:28:37;;;;;;;10.23;7.13;;;-2.00;99.90;;;;;;5015720;28;20623;-70
2023/01/22 01:31:05;;;;;;;9.10;6.77;;;-2.00;99.90;;;;;;5005420;28;20281;-71
2023/01/22 01:33:31;;;;;;;8.30;6.60;;;-2.10;99.90;;;;;;5017845;28;20597;-71
2023/01/22 01:36:09;;;;;;;7.33;6.63;;;-2.10;99.90;;;;;;5020732;28;20184;-71
2023/01/22 01:38:35;;;;;;;8.70;6.57;;;-2.10;99.90;;;;;;5017097;28;20216;-70
2023/01/22 01:41:00;;;;;;;7.23;5.83;;;-2.10;99.90;;;;;;5015846;28;20196;-70
2023/01/22 01:43:26;;;;;;;7.50;6.77;;;-2.10;99.90;;;;;;5018223;28;20204;-69
2023/01/22 01:45:53;;;;;;;8.27;7.13;;;-2.00;99.90;;;;;;5023162;28;20641;-69
2023/01/22 01:48:41;;;;;;;8.37;7.07;;;-2.00;99.90;;;;;;5013393;28;20617;-69
2023/01/22 01:51:30;;;;;;;8.10;6.70;;;-2.00;99.90;;;;;;5016653;28;20185;-69
2023/01/22 01:53:58;;;;;;;9.60;6.80;;;-1.90;99.90;;;;;;5023647;28;20200;-69
2023/01/22 01:56:38;;;;;;;7.63;6.80;;;-1.80;99.90;;;;;;5018378;28;20180;-69
2023/01/22 01:59:07;;;;;;;9.30;7.23;;;-1.80;99.90;;;;;;5009160;28;20238;-69
2023/01/22 02:01:35;;;;;;;8.13;6.93;;;-1.70;99.90;;;;;;5013317;28;20209;-70
2023/01/22 02:04:01;;;;;;;8.17;6.63;;;-1.60;99.90;;;;;;5009807;28;20707;-68
2023/01/22 02:06:27;;;;;;;7.97;7.20;;;-1.50;99.90;;;;;;5018978;28;20201;-69
2023/01/22 02:08:53;;;;;;;9.07;8.07;;;-1.50;99.90;;;;;;5013525;28;20608;-69
2023/01/22 02:11:20;;;;;;;8.67;7.10;;;-1.40;99.90;;;;;;5022569;28;20208;-70
2023/01/22 02:14:02;;;;;;;7.07;6.33;;;-1.40;99.90;;;;;;5011561;28;20223;-70
2023/01/22 02:16:28;;;;;;;8.40;7.27;;;-1.30;99.90;;;;;;5016622;28;20199;-70
2023/01/22 02:18:53;;;;;;;7.57;6.83;;;-1.30;99.90;;;;;;5020352;28;20189;-69
2023/01/22 02:21:37;;;;;;;8.67;6.57;;;-1.20;99.90;;;;;;5021652;28;20616;-69
2023/01/22 02:24:07;;;;;;;6.80;6.07;;;-1.10;99.90;;;;;;5023088;28;20219;-69
2023/01/22 02:26:33;;;;;;;7.37;6.67;;;-1.10;99.90;;;;;;5025068;28;20179;-70
2023/01/22 02:28:59;;;;;;;8.47;6.33;;;-1.00;99.90;;;;;;5011102;28;20210;-69
2023/01/22 02:31:24;;;;;;;7.40;6.60;;;-1.00;99.90;;;;;;5012588;28;20271;-70
2023/01/22 02:33:50;;;;;;;6.93;6.23;;;-0.90;99.90;;;;;;5020837;28;20208;-69
2023/01/22 02:36:16;;;;;;;7.57;6.80;;;-0.80;99.90;;;;;;5016798;28;20586;-69
2023/01/22 02:38:41;;;;;;;7.47;6.67;;;-0.80;99.90;;;;;;5022462;28;20275;-69
2023/01/22 02:41:07;;;;;;;7.57;6.83;;;-0.70;99.90;;;;;;5018117;28;20185;-70
2023/01/22 02:43:33;;;;;;;6.67;6.03;;;-0.70;99.90;;;;;;5023989;28;20224;-70
2023/01/22 02:45:59;;;;;;;7.13;6.43;;;-0.70;99.90;;;;;;5023863;28;20606;-69
2023/01/22 02:48:24;;;;;;;7.47;6.73;;;-0.70;99.90;;;;;;5017872;28;20262;-67
2023/01/22 02:50:51;;;;;;;7.63;6.57;;;-0.70;99.90;;;;;;5012343;28;20563;-70
2023/01/22 02:53:16;;;;;;;6.97;6.37;;;-0.80;99.90;;;;;;5016280;28;20207;-69
2023/01/22 02:55:43;;;;;;;7.57;6.73;;;-0.70;99.90;;;;;;5014747;28;20185;-70
2023/01/22 02:58:09;;;;;;;7.13;6.43;;;-0.70;99.90;;;;;;5016415;28;20275;-69
2023/01/22 03:00:35;;;;;;;7.03;6.30;;;-0.70;99.90;;;;;;5014890;28;20331;-70
2023/01/22 03:03:06;;;;;;;6.80;6.10;;;-0.60;99.90;;;;;;5023386;28;20193;-69
2023/01/22 03:05:34;;;;;;;7.07;6.27;;;-0.60;99.90;;;;;;5010565;28;20678;-70
2023/01/22 03:08:00;;;;;;;7.97;6.17;;;-0.70;99.90;;;;;;5010945;28;20236;-70
2023/01/22 03:10:26;;;;;;;7.37;6.10;;;-0.60;99.90;;;;;;5018334;28;20648;-71
2023/01/22 03:21:15;;;;;;;7.77;6.30;;;-0.60;99.90;;;;;;5021601;28;20260;-70
2023/01/22 03:23:43;;;;;;;7.70;6.93;;;-0.60;99.90;;;;;;5007840;28;20232;-70
2023/01/22 03:26:09;;;;;;;6.40;5.37;;;-0.60;99.90;;;;;;5003967;28;20670;-70
2023/01/22 03:28:35;;;;;;;6.77;5.90;;;-0.50;99.90;;;;;;5007649;28;20284;-70
2023/01/22 03:31:01;;;;;;;6.57;5.97;;;-0.50;99.90;;;;;;5013114;28;20697;-70
2023/01/22 03:33:27;;;;;;;6.80;5.93;;;-0.60;99.90;;;;;;5023170;28;20192;-70
2023/01/22 03:35:52;;;;;;;7.40;6.33;;;-0.50;99.90;;;;;;5014954;28;20698;-70
2023/01/22 03:38:18;;;;;;;6.63;6.00;;;-0.50;99.90;;;;;;5011690;28;20267;-70
2023/01/22 03:40:44;;;;;;;7.27;6.07;;;-0.60;99.90;;;;;;5022514;28;20647;-70
2023/01/22 03:43:09;;;;;;;6.40;5.80;;;-0.60;99.90;;;;;;5018439;28;20200;-70
2023/01/22 03:45:35;;;;;;;7.90;6.83;;;-0.60;99.90;;;;;;5025306;28;20322;-70
2023/01/22 03:48:01;;;;;;;7.17;6.47;;;-0.50;99.90;;;;;;5013675;28;20212;-70
2023/01/22 03:50:27;;;;;;;6.87;6.17;;;-0.60;99.90;;;;;;5038112;28;20592;-70
2023/01/22 03:52:54;;;;;;;8.30;6.53;;;-0.60;99.90;;;;;;5017358;28;20173;-70
2023/01/22 03:55:19;;;;;;;7.17;6.47;;;-0.60;99.90;;;;;;5026932;28;20639;-69
2023/01/22 03:57:45;;;;;;;6.87;6.17;;;-0.50;99.90;;;;;;5026066;28;20195;-70
2023/01/22 04:00:12;;;;;;;6.93;6.27;;;-0.40;99.90;;;;;;5024939;28;20187;-69
2023/01/22 04:02:38;;;;;;;7.10;6.40;;;-0.40;99.90;;;;;;5028783;28;20176;-69
2023/01/22 04:05:04;;;;;;;7.97;7.07;;;-0.30;99.90;;;;;;5016826;28;20224;-70
2023/01/22 04:07:30;;;;;;;7.30;6.10;;;-0.30;99.90;;;;;;5009720;28;20248;-70
2023/01/22 04:09:55;;;;;;;6.53;5.87;;;-0.30;99.90;;;;;;5023573;28;20189;-70
2023/01/22 04:12:21;;;;;;;6.73;6.03;;;-0.30;99.90;;;;;;5024598;28;20183;-69
2023/01/22 04:14:46;;;;;;;6.47;5.87;;;-0.40;99.90;;;;;;5018962;28;20201;-70
2023/01/22 04:17:12;;;;;;;7.97;5.73;;;-0.30;99.90;;;;;;5025995;28;20190;-70
2023/01/22 04:19:38;;;;;;;6.40;5.80;;;-0.40;99.90;;;;;;5018248;28;20181;-71
2023/01/22 04:22:03;;;;;;;5.63;5.13;;;-0.30;99.90;;;;;;5023089;28;20387;-70
2023/01/22 04:24:29;;;;;;;7.07;6.10;;;-0.20;99.90;;;;;;5024159;28;20209;-70
2023/01/22 04:26:54;;;;;;;7.13;6.37;;;-0.20;99.90;;;;;;5023760;28;20189;-71
2023/01/22 04:29:20;;;;;;;7.53;6.83;;;-0.20;99.90;;;;;;5017301;28;20207;-71
2023/01/22 04:31:45;;;;;;;6.50;5.73;;;-0.20;99.90;;;;;;5015512;28;20244;-71
2023/01/22 04:34:11;;;;;;;6.33;5.67;;;-0.30;99.90;;;;;;5024129;28;20195;-71
2023/01/22 04:36:37;;;;;;;7.17;6.47;;;-0.30;99.90;;;;;;5022282;28;20188;-71
2023/01/22 04:39:02;;;;;;;6.53;5.87;;;-0.40;99.90;;;;;;5014339;28;20617;-71
2023/01/22 04:41:28;;;;;;;6.43;5.83;;;-0.40;99.90;;;;;;5013196;28;20255;-71
2023/01/22 04:43:53;;;;;;;7.50;5.90;;;-0.40;99.90;;;;;;5022826;28;20221;-71
2023/01/22 04:46:19;;;;;;;7.43;6.73;;;-0.30;99.90;;;;;;5033379;28;20184;-71
2023/01/22 04:48:47;;;;;;;6.97;5.83;;;-0.40;99.90;;;;;;5016729;28;20785;-71
2023/01/22 04:51:13;;;;;;;7.20;5.83;;;-0.40;99.90;;;;;;5021956;28;20185;-71
2023/01/22 04:53:39;;;;;;;7.17;6.47;;;-0.40;99.90;;;;;;5017934;28;20204;-70
2023/01/22 04:56:04;;;;;;;7.83;6.70;;;-0.30;99.90;;;;;;5015342;28;20603;-70
2023/01/22 04:58:30;;;;;;;8.17;6.33;;;-0.30;99.90;;;;;;5010686;28;20184;-70
2023/01/22 05:00:56;;;;;;;7.23;6.13;;;-0.30;99.90;;;;;;5023929;28;20231;-70
2023/01/22 05:03:22;;;;;;;7.07;6.33;;;-0.30;99.90;;;;;;5024266;28;20232;-70
2023/01/22 05:05:48;;;;;;;6.97;6.23;;;-0.30;99.90;;;;;;5020234;28;20228;-70
2023/01/22 05:08:13;;;;;;;6.87;6.17;;;-0.20;99.90;;;;;;5013142;28;20204;-70
2023/01/22 05:10:39;;;;;;;7.70;6.47;;;-0.20;99.90;;;;;;5023476;28;20184;-70
2023/01/22 05:13:06;;;;;;;7.57;6.87;;;-0.20;99.90;;;;;;5025336;28;20577;-70
2023/01/22 05:15:32;;;;;;;8.07;6.87;;;-0.10;99.90;;;;;;5018389;28;20184;-70
2023/01/22 05:17:57;;;;;;;6.80;6.20;;;-0.10;99.90;;;;;;5018092;28;20199;-70
2023/01/22 05:20:24;;;;;;;8.57;6.53;;;-0.10;99.90;;;;;;5021803;28;20185;-70
2023/01/22 05:22:50;;;;;;;7.40;6.63;;;-0.10;99.90;;;;;;5013169;28;20664;-70
2023/01/22 05:25:15;;;;;;;7.27;6.57;;;-0.10;99.90;;;;;;5026865;28;20195;-70
2023/01/22 05:27:41;;;;;;;7.47;6.67;;;0.00;99.90;;;;;;5018236;28;20212;-70
2023/01/22 05:30:07;;;;;;;7.47;6.67;;;0.00;99.90;;;;;;5023590;28;20183;-70
2023/01/22 05:32:33;;;;;;;7.27;6.37;;;0.00;99.90;;;;;;5015385;28;20189;-70
2023/01/22 05:34:58;;;;;;;6.73;6.03;;;-0.10;99.90;;;;;;5023997;28;20197;-70
2023/01/22 05:37:24;;;;;;;6.90;6.20;;;-0.10;99.90;;;;;;5019446;28;20261;-70
2023/01/22 05:39:49;;;;;;;6.97;6.37;;;0.00;99.90;;;;;;5021914;28;20653;-70
2023/01/22 05:42:15;;;;;;;8.43;7.50;;;-0.10;99.90;;;;;;5015686;28;20244;-70
2023/01/22 05:44:41;;;;;;;9.30;7.77;;;-0.20;99.90;;;;;;5016762;28;20231;-70
2023/01/22 05:47:08;;;;;;;8.13;7.17;;;-0.20;99.90;;;;;;5018212;28;20229;-70
2023/01/22 05:49:33;;;;;;;7.23;6.53;;;-0.20;99.90;;;;;;5022425;28;20214;-70
2023/01/22 05:51:59;;;;;;;7.80;7.00;;;-0.20;99.90;;;;;;5023390;28;20260;-69
2023/01/22 05:54:24;;;;;;;6.97;6.27;;;-0.30;99.90;;;;;;5025781;28;20188;-69
2023/01/22 05:56:50;;;;;;;8.27;7.27;;;-0.30;99.90;;;;;;5024317;28;20256;-70
2023/01/22 05:59:15;;;;;;;7.47;6.67;;;-0.30;99.90;;;;;;5018551;28;20188;-70
2023/01/22 06:01:41;;;;;;;7.33;6.63;;;-0.30;99.90;;;;;;5020256;28;20188;-70
2023/01/22 06:04:06;;;;;;;10.23;7.27;;;-0.30;99.90;;;;;;5011014;28;20676;-70
2023/01/22 06:06:32;;;;;;;8.00;7.03;;;-0.30;99.90;;;;;;5014791;28;20215;-70
2023/01/22 06:08:58;;;;;;;7.47;6.77;;;-0.40;99.90;;;;;;5011765;28;20305;-70
2023/01/22 06:11:24;;;;;;;8.57;6.70;;;-0.40;99.90;;;;;;5009154;28;20220;-71
2023/01/22 06:13:50;;;;;;;7.70;6.67;;;-0.50;99.90;;;;;;5012086;28;20242;-71
2023/01/22 06:16:16;;;;;;;7.37;6.63;;;-0.40;99.90;;;;;;5007741;28;20177;-71
2023/01/22 06:18:41;;;;;;;9.23;7.17;;;-0.50;99.90;;;;;;5010835;28;20182;-71
2023/01/22 06:21:07;;;;;;;9.33;7.50;;;-0.50;99.90;;;;;;5012836;28;20184;-70
2023/01/22 06:23:33;;;;;;;8.07;7.27;;;-0.50;99.90;;;;;;5005209;28;20201;-70
2023/01/22 06:26:01;;;;;;;7.37;6.23;;;-0.60;99.90;;;;;;5013437;28;20180;-70
2023/01/22 06:28:27;;;;;;;9.80;7.97;;;-0.60;99.90;;;;;;5008360;28;20605;-70
2023/01/22 06:30:56;;;;;;;7.73;7.03;;;-0.60;99.90;;;;;;5010071;28;20181;-70
2023/01/22 06:33:22;;;;;;;8.93;7.27;;;-0.60;99.90;;;;;;5009368;28;20204;-70
2023/01/22 06:35:53;;;;;;;8.50;7.60;;;-0.50;99.90;;;;;;5005302;28;20189;-70
2023/01/22 06:38:18;;;;;;;9.07;7.17;;;-0.50;99.90;;;;;;5015521;28;20266;-70
2023/01/22 06:40:50;;;;;;;7.57;6.87;;;-0.50;99.90;;;;;;5004677;28;20680;-70
2023/01/22 06:43:16;;;;;;;7.00;6.20;;;-0.40;99.90;;;;;;5006883;28;20665;-71
2023/01/22 06:45:41;;;;;;;7.57;6.70;;;-0.40;99.90;;;;;;5014111;28;20187;-71
2023/01/22 06:48:07;;;;;;;7.83;7.03;;;-0.50;99.90;;;;;;5014252;28;20227;-70
2023/01/22 06:50:32;;;;;;;8.70;7.07;;;-0.50;99.90;;;;;;5020642;28;20181;-71
2023/01/22 06:53:00;;;;;;;7.90;6.70;;;-0.50;99.90;;;;;;5018270;28;20205;-70
2023/01/22 06:55:25;;;;;;;8.80;7.77;;;-0.50;99.90;;;;;;5020190;28;20201;-70
2023/01/22 06:57:54;;;;;;;7.47;6.67;;;-0.50;99.90;;;;;;5015767;28;20592;-71
2023/01/22 07:00:20;;;;;;;8.43;7.47;;;-0.50;99.90;;;;;;5014148;28;20558;-71
2023/01/22 07:02:45;;;;;;;9.03;7.87;;;-0.50;99.90;;;;;;5018108;28;20174;-71
2023/01/22 07:05:11;;;;;;;8.63;7.13;;;-0.60;99.90;;;;;;5022787;28;20671;-71
2023/01/22 07:07:36;;;;;;;8.80;7.27;;;-0.60;99.90;;;;;;5016683;28;20259;-72
2023/01/22 07:10:03;;;;;;;9.77;8.43;;;-0.60;99.90;;;;;;5014762;28;20558;-71
2023/01/22 07:12:28;;;;;;;8.60;7.63;;;-0.50;99.90;;;;;;5006756;28;20208;-70
2023/01/22 07:14:54;;;;;;;8.60;7.70;;;-0.50;99.90;;;;;;5009872;28;20621;-71
2023/01/22 07:17:19;;;;;;;9.23;7.67;;;-0.40;99.90;;;;;;5006148;28;20207;-70
2023/01/22 07:19:45;;;;;;;8.43;7.63;;;-0.30;99.90;;;;;;5008998;28;20212;-69
2023/01/22 07:22:10;;;;;;;8.07;7.27;;;-0.20;99.90;;;;;;5010606;28;20299;-70
2023/01/22 07:24:36;;;;;;;8.27;7.43;;;-0.10;99.90;;;;;;5017579;28;20212;-70
2023/01/22 07:27:01;;;;;;;9.40;7.47;;;-0.10;99.90;;;;;;5006129;28;20689;-72
2023/01/22 07:29:27;;;;;;;9.73;7.53;;;0.00;99.90;;;;;;5006371;28;20626;-70
2023/01/22 07:31:53;;;;;;;8.53;7.30;;;0.10;99.90;;;;;;5008702;28;20231;-70
2023/01/22 07:34:19;;;;;;;7.60;6.90;;;0.30;99.90;;;;;;5012301;28;20193;-70
2023/01/22 07:36:47;;;;;;;8.30;7.40;;;0.40;99.90;;;;;;5007796;28;20173;-75
2023/01/22 07:39:13;;;;;;;8.80;7.37;;;0.50;99.90;;;;;;5011858;28;20185;-72
2023/01/22 07:41:38;;;;;;;8.87;7.77;;;0.60;99.90;;;;;;5018658;28;20181;-73
2023/01/22 07:44:06;;;;;;;7.77;6.97;;;0.70;99.90;;;;;;5017123;28;20549;-71
2023/01/22 07:46:33;;;;;;;8.37;7.57;;;0.90;99.90;;;;;;5010160;28;20268;-74
2023/01/22 07:48:59;;;;;;;9.63;8.23;;;1.00;99.90;;;;;;5021414;28;20241;-74
2023/01/22 07:51:25;;;;;;;9.60;7.50;;;1.20;99.90;;;;;;5022479;28;20639;-74
2023/01/22 07:53:50;;;;;;;9.93;7.83;;;1.30;99.90;;;;;;5014832;28;20762;-73
2023/01/22 07:56:17;;;;;;;9.27;8.13;;;1.30;99.90;;;;;;5022520;28;20546;-73
2023/01/22 07:58:44;;;;;;;8.77;7.70;;;1.30;99.90;;;;;;5022838;28;20176;-73
2023/01/22 08:01:10;;;;;;;10.20;7.30;;;1.30;99.90;;;;;;5016629;28;20176;-72
2023/01/22 08:03:36;;;;;;;9.48;8.00;;;1.30;99.90;;;;;;5012700;28;20211;-72
2023/01/22 08:06:10;;;;;;;8.10;7.32;;;1.40;99.90;;;;;;5013062;28;20197;-71
2023/01/22 08:08:37;;;;;;;8.38;7.07;;;1.40;99.90;;;;;;5015741;28;20197;-71
2023/01/22 08:11:03;;;;;;;9.02;7.13;;;1.30;99.90;;;;;;5011577;28;20182;-72
2023/01/22 08:13:28;;;;;;;7.47;6.78;;;1.40;99.90;;;;;;5010816;28;20687;-72
2023/01/22 08:15:54;;;;;;;7.85;7.03;;;1.40;99.90;;;;;;5007438;28;20174;-72
2023/01/22 08:18:20;;;;;;;8.98;7.82;;;1.50;99.90;;;;;;5014139;28;20184;-73
2023/01/22 08:20:46;;;;;;;8.20;7.37;;;1.50;99.90;;;;;;5005338;28;20273;-73
2023/01/22 08:23:11;;;;;;;7.90;7.20;;;1.40;99.90;;;;;;5007175;28;20225;-74
2023/01/22 08:25:37;;;;;;;8.23;7.43;;;1.40;99.90;;;;;;5008052;28;20185;-75
2023/01/22 08:28:03;;;;;;;8.75;7.88;;;1.40;99.90;;;;;;5011967;28;20201;-75
2023/01/22 08:30:33;;;;;;;8.93;7.93;;;1.40;99.90;;;;;;5025870;28;20553;-75
2023/01/22 08:33:01;;;;;;;8.10;7.28;;;1.40;99.90;;;;;;5009750;28;20186;-76
2023/01/22 08:35:28;;;;;;;9.35;8.25;;;1.50;99.90;;;;;;5008787;28;20173;-74
2023/01/22 08:37:56;;;;;;;10.45;7.90;;;1.60;99.90;;;;;;5013664;28;20181;-74
2023/01/22 08:40:22;;;;;;;9.00;8.10;;;1.60;99.90;;;;;;5011173;28;20212;-77
2023/01/22 08:42:51;;;;;;;8.43;7.63;;;1.60;99.90;;;;;;5009398;28;20288;-76
2023/01/22 08:45:17;;;;;;;8.00;7.20;;;1.70;99.90;;;;;;5022970;28;20193;-76
2023/01/22 08:47:43;;;;;;;8.88;7.97;;;1.80;99.90;;;;;;5023275;28;20326;-75
2023/01/22 08:50:09;;;;;;;7.38;6.68;;;2.00;99.90;;;;;;5018661;28;20182;-77
2023/01/22 08:52:34;;;;;;;7.32;6.63;;;2.20;99.90;;;;;;5021177;28;20185;-76
2023/01/22 08:55:00;;;;;;;7.60;6.80;;;2.30;99.90;;;;;;5014967;28;20563;-76
2023/01/22 08:57:25;;;;;;;7.75;7.05;;;2.40;99.90;;;;;;5021350;28;20547;-75
2023/01/22 08:59:51;;;;;;;9.32;7.03;;;2.30;99.90;;;;;;5018274;28;20633;-77
2023/01/22 09:02:17;;;;;;;7.97;7.18;;;2.40;99.90;;;;;;5015202;28;20271;-76
2023/01/22 09:04:42;;;;;;;7.93;7.13;;;2.40;99.90;;;;;;5020676;28;20291;-76
2023/01/22 09:07:09;;;;;;;8.00;7.20;;;2.30;99.90;;;;;;5026911;28;20200;-75
2023/01/22 09:09:35;;;;;;;9.00;7.57;;;2.40;99.90;;;;;;5027702;28;20283;-75
2023/01/22 09:12:00;;;;;;;8.43;7.53;;;2.50;99.90;;;;;;5017585;28;20315;-81
2023/01/22 09:14:26;;;;;;;8.70;7.80;;;2.70;99.90;;;;;;5009043;28;20203;-79
2023/01/22 09:16:52;;;;;;;8.10;7.30;;;2.90;99.90;;;;;;5014776;28;20172;-80
2023/01/22 09:19:18;;;;;;;8.48;7.43;;;3.10;99.90;;;;;;5015452;28;20193;-82
2023/01/22 09:21:43;;;;;;;8.20;7.40;;;3.00;99.90;;;;;;5013923;28;20658;-78
2023/01/22 09:24:09;;;;;;;8.48;7.50;;;3.10;99.90;;;;;;5025168;28;20204;-81
2023/01/22 09:26:39;;;;;;;8.32;7.53;;;3.30;99.90;;;;;;5021477;28;20192;-77
2023/01/22 09:29:05;;;;;;;7.57;6.78;;;3.50;99.90;;;;;;5018028;28;20746;-80
2023/01/22 09:31:35;;;;;;;9.50;7.10;;;4.00;99.90;;;;;;5016520;28;20177;-77
2023/01/22 09:34:02;;;;;;;8.45;7.55;;;4.50;99.90;;;;;;5017596;28;20205;-76
2023/01/22 09:36:27;;;;;;;7.55;6.78;;;4.90;99.90;;;;;;5012119;28;20181;-76
2023/01/22 09:38:54;;;;;;;7.25;6.55;;;5.30;99.90;;;;;;5017297;28;20188;-74
2023/01/22 09:41:30;;;;;;;7.32;6.70;;;6.20;99.90;;;;;;5009606;28;20196;-75
2023/01/22 09:44:16;;;;;;;8.00;7.25;;;6.90;99.90;;;;;;5018216;28;20273;-75
2023/01/22 09:46:46;;;;;;;7.80;7.00;;;7.40;99.90;;;;;;5025602;28;20181;-77
2023/01/22 09:49:22;;;;;;;6.40;5.80;;;8.60;99.90;;;;;;5016323;28;20232;-78
2023/01/22 09:51:57;;;;;;;7.00;6.35;;;10.20;99.90;;;;;;5012051;28;20538;-77
2023/01/22 09:54:24;;;;;;;6.90;6.30;;;11.80;99.90;;;;;;5016542;28;20197;-81
2023/01/22 09:56:52;;;;;;;6.60;6.00;;;12.80;94.70;;;;;;5011078;28;20185;-75
2023/01/22 09:59:20;;;;;;;6.68;6.07;;;13.90;90.90;;;;;;5006685;28;20236;-75
2023/01/22 10:01:52;;;;;;;6.53;6.03;;;14.70;83.00;;;;;;5011617;28;20205;-76
2023/01/22 10:04:24;;;;;;;7.40;6.72;;;14.50;79.60;;;;;;5011630;28;20228;-74
2023/01/22 10:06:51;;;;;;;6.97;6.18;;;13.70;78.50;;;;;;5018937;28;20189;-75
2023/01/22 10:09:19;;;;;;;7.43;6.72;;;13.60;79.60;;;;;;5016184;28;20197;-73
2023/01/22 10:11:51;;;;;;;7.10;6.40;;;14.60;78.20;;;;;;5015350;28;20196;-73
2023/01/22 10:14:20;;;;;;;7.47;6.88;;;15.90;73.20;;;;;;5013954;28;20229;-73
2023/01/22 10:16:47;;;;;;;6.45;5.95;;;16.70;68.70;;;;;;5013532;28;20177;-74
2023/01/22 10:19:13;;;;;;;6.80;6.20;;;16.70;67.00;;;;;;5002608;28;20173;-74
2023/01/22 10:21:48;;;;;;;6.93;6.32;;;16.30;65.90;;;;;;5006684;28;20326;-75
2023/01/22 10:24:14;;;;;;;6.90;6.30;;;16.40;67.10;;;;;;5009847;28;20205;-75
2023/01/22 10:26:49;;;;;;;6.85;6.25;;;16.10;65.70;;;;;;5014252;28;20215;-76
2023/01/22 10:29:30;;;;;;;6.70;6.13;;;15.00;67.60;;;;;;5017147;28;20234;-74
2023/01/22 10:32:01;;;;;;;6.97;6.28;;;14.40;68.30;;;;;;5010906;28;20314;-74
2023/01/22 10:34:36;;;;;;;6.63;6.13;;;13.10;71.30;;;;;;5013043;28;20193;-76
2023/01/22 10:37:03;;;;;;;7.68;7.07;;;12.20;73.90;;;;;;5021022;28;20315;-74
2023/01/22 10:39:40;;;;;;;7.18;6.57;;;11.30;76.80;;;;;;5007514;28;20195;-74
2023/01/22 10:42:06;;;;;;;7.22;6.63;;;10.90;78.10;;;;;;5018430;28;20603;-74
2023/01/22 10:44:31;;;;;;;7.90;7.20;;;10.70;80.50;;;;;;5005555;28;20202;-74
2023/01/22 10:47:19;;;;;;;6.78;6.18;;;10.30;81.60;;;;;;5013508;28;20182;-78
2023/01/22 10:49:45;;;;;;;7.75;6.95;;;9.80;84.30;;;;;;5009292;28;20258;-74
2023/01/22 10:52:31;;;;;;;7.63;6.93;;;9.40;85.50;;;;;;5011165;28;20266;-74
2023/01/22 10:54:58;;;;;;;8.85;6.88;;;8.70;87.10;;;;;;5017211;28;20196;-75
2023/01/22 10:57:33;;;;;;;7.32;6.72;;;8.00;90.10;;;;;;5016364;28;20175;-75
2023/01/22 11:00:06;;;;;;;7.53;6.85;;;7.50;91.30;;;;;;5018654;28;20628;-75
2023/01/22 11:02:34;;;;;;;6.85;6.25;;;7.20;92.10;;;;;;5012276;28;20185;-74
2023/01/22 11:05:23;;;;;;;6.93;6.35;;;6.90;93.10;;;;;;5018287;28;20219;-74
2023/01/22 11:07:56;;;;;;;7.10;6.40;;;6.40;94.50;;;;;;5011078;28;20177;-74
2023/01/22 11:10:33;;;;;;;7.22;6.55;;;6.20;95.40;;;;;;5018092;28;20191;-75
2023/01/22 11:13:20;;;;;;;7.93;7.07;;;6.00;96.60;;;;;;5015466;28;20180;-75
2023/01/22 11:16:18;;;;;;;8.88;6.55;;;5.80;97.40;;;;;;5015285;28;20222;-74
2023/01/22 11:18:50;;;;;;;7.88;7.00;;;5.70;98.20;;;;;;5016694;28;20185;-75
2023/01/22 11:21:21;;;;;;;7.80;7.10;;;5.60;99.20;;;;;;5010979;28;20599;-74
2023/01/22 11:23:55;;;;;;;7.82;7.05;;;5.50;99.90;;;;;;5015676;28;20637;-75
2023/01/22 11:26:47;;;;;;;7.63;6.93;;;5.30;99.90;;;;;;5007946;28;20200;-74
2023/01/22 11:29:46;;;;;;;7.40;6.68;;;5.10;99.90;;;;;;5013997;28;20642;-75
2023/01/22 11:32:36;;;;;;;7.38;6.78;;;5.10;99.90;;;;;;5007547;28;20615;-75
2023/01/22 11:35:11;;;;;;;8.05;7.30;;;5.00;99.90;;;;;;5020073;28;20671;-74
2023/01/22 11:37:47;;;;;;;8.23;7.43;;;4.80;99.90;;;;;;5021550;28;20654;-74
2023/01/22 11:40:18;;;;;;;8.20;7.40;;;4.70;99.90;;;;;;5012597;28;20172;-75
2023/01/22 11:43:23;;;;;;;7.68;6.90;;;4.60;99.90;;;;;;5011019;28;20183;-75
2023/01/22 11:46:22;;;;;;;10.27;7.85;;;4.40;99.90;;;;;;5017447;28;20221;-75
2023/01/22 11:48:56;;;;;;;8.10;7.30;;;4.40;99.90;;;;;;5009113;28;20749;-74
2023/01/22 11:51:35;;;;;;;9.63;7.47;;;4.20;99.90;;;;;;5016052;28;20183;-74
2023/01/22 11:54:27;;;;;;;8.82;7.30;;;4.20;99.90;;;;;;5013916;28;20201;-75
2023/01/22 11:57:07;;;;;;;7.88;7.10;;;4.20;99.90;;;;;;5009544;28;20181;-74
2023/01/22 11:59:41;;;;;;;7.20;6.50;;;4.10;99.90;;;;;;5008118;28;20191;-74
2023/01/22 12:02:19;;;;;;;8.07;7.28;;;4.20;99.90;;;;;;5013276;28;20252;-75
2023/01/22 12:04:56;;;;;;;8.43;7.53;;;4.30;99.90;;;;;;5009374;28;20259;-74
2023/01/22 12:07:36;;;;;;;8.30;7.45;;;4.10;99.90;;;;;;5008171;28;20183;-73
2023/01/22 12:10:02;;;;;;;7.63;6.88;;;4.10;99.90;;;;;;5008706;28;20673;-74
2023/01/22 12:12:58;;;;;;;8.50;7.63;;;4.30;99.90;;;;;;5011775;28;20216;-74
2023/01/22 12:15:35;;;;;;;7.63;6.90;;;4.30;99.90;;;;;;5016221;28;20209;-75
2023/01/22 12:18:51;;;;;;;8.77;7.90;;;4.20;99.90;;;;;;5007909;28;20610;-74
2023/01/22 12:21:38;;;;;;;7.70;7.00;;;4.10;99.90;;;;;;5013807;28;20198;-75
2023/01/22 12:24:38;;;;;;;6.97;6.35;;;4.20;99.90;;;;;;5019182;28;20702;-74
2023/01/22 12:27:39;;;;;;;7.03;6.32;;;4.40;99.90;;;;;;5012702;28;20578;-76
2023/01/22 12:30:27;;;;;;;7.93;7.22;;;4.50;99.90;;;;;;5010482;28;20244;-75
2023/01/22 12:32:58;;;;;;;9.45;8.45;;;4.40;99.90;;;;;;5015717;28;20174;-75
2023/01/22 12:35:25;;;;;;;6.97;6.35;;;4.20;99.90;;;;;;5002195;28;20762;-75
2023/01/22 12:38:14;;;;;;;7.75;7.05;;;4.20;99.90;;;;;;5007042;28;20182;-75
2023/01/22 12:41:05;;;;;;;7.10;6.50;;;4.20;99.90;;;;;;5017691;28;20174;-75
2023/01/22 12:43:48;;;;;;;7.35;6.60;;;4.30;99.90;;;;;;5014511;28;20573;-75
2023/01/22 12:46:24;;;;;;;7.53;6.82;;;4.20;99.90;;;;;;5015951;28;20177;-76
2023/01/22 12:49:03;;;;;;;8.65;7.35;;;4.10;99.90;;;;;;5011316;28;20308;-76
2023/01/22 12:51:45;;;;;;;7.68;6.68;;;4.00;99.90;;;;;;5039507;28;20181;-77
2023/01/22 12:54:17;;;;;;;8.07;7.28;;;4.00;99.90;;;;;;5014205;28;20196;-76
2023/01/22 12:56:43;;;;;;;7.95;7.15;;;4.20;99.90;;;;;;5016487;28;20543;-75
2023/01/22 12:59:39;;;;;;;8.10;7.30;;;4.50;99.90;;;;;;5013103;28;20194;-75
2023/01/22 13:02:37;;;;;;;7.55;6.85;;;4.90;99.90;;;;;;5020129;28;20229;-75
2023/01/22 13:05:24;;;;;;;7.70;7.00;;;5.00;99.90;;;;;;5011975;28;20657;-77
2023/01/22 13:08:05;;;;;;;7.78;7.00;;;5.10;99.90;;;;;;5016670;28;20867;-77
2023/01/22 13:10:33;;;;;;;8.05;7.32;;;5.30;99.90;;;;;;5024313;28;20240;-76
2023/01/22 13:13:02;;;;;;;8.40;7.53;;;5.40;99.90;;;;;;5010011;28;20239;-76
2023/01/22 13:15:35;;;;;;;8.20;7.45;;;5.50;99.90;;;;;;5013986;28;20178;-75